Latest Weather Observations for Nerriga

IDN60801

Issued at 10:03 am EST Tuesday 26 May 2020 (issued every 10 minutes, with the page automatically refreshed every 10 minutes)

About weather observations | Map of weather stations | Latest weather observations for NSW | Other Formats
Station Details ID: 069128 Name: NERRIGA AWS Lat: -35.11 Lon: 150.08 Height: 622.0 m
Data from the previous 72 hours. | See also: Recent months at Nerriga
Date/Time
EST
Temp
°C
App
Temp
°C
Dew
Point
°C
Rel
Hum
%
Delta-T
°C
Wind Press
QNH
hPa
Press
MSL
hPa
Rain since
9am
mm
Dir  Spd
km/h
Gust
km/h
Spd
kts
Gust
kts
26/10:00am 10.7 7.6 10.4 98 0.2 SSE 17 20 9 11 1025.2 1025.3 0.2
26/09:30am 10.9 8.4 10.9 100 0.0 SSE 15 24 8 13 1025.2 1025.3 0.2
26/09:00am 10.1 7.3 10.1 100 0.0 SSE 15 22 8 12 1025.1 1025.2 2.4
26/08:30am 9.7 6.1 9.7 100 0.0 SSE 19 30 10 16 1024.7 1024.8 2.4
26/08:00am 9.3 7.1 9.3 100 0.0 SSE 11 15 6 8 1024.3 1024.4 2.2
26/07:30am 9.0 7.1 9.0 100 0.0 SSE 9 17 5 9 1024.1 1024.1 2.0
26/07:00am 8.9 6.6 8.9 100 0.0 SSE 11 17 6 9 1024.0 1024.0 2.0
26/06:30am 8.8 5.7 8.8 100 0.0 S 15 20 8 11 1023.8 1023.8 1.8
26/06:00am 8.7 5.2 8.7 100 0.0 SSE 17 24 9 13 1023.5 1023.6 1.8
26/05:30am 8.7 5.2 8.7 100 0.0 S 17 26 9 14 1023.3 1023.4 1.8
26/05:00am 8.5 6.1 8.5 100 0.0 S 11 17 6 9 1023.2 1023.3 1.8
26/04:30am 8.3 5.4 8.3 100 0.0 S 13 22 7 12 1023.2 1023.3 1.6
26/04:00am 8.3 5.1 8.3 100 0.0 S 15 24 8 13 1023.3 1023.4 1.6
26/03:30am 8.3 5.4 8.3 100 0.0 SSE 13 20 7 11 1023.4 1023.5 1.6
26/03:00am 8.2 4.9 8.1 99 0.0 S 15 24 8 13 1023.5 1023.6 1.4
26/02:30am 8.1 4.8 8.0 99 0.0 S 15 22 8 12 1023.6 1023.7 1.4
26/02:00am 8.1 4.7 7.7 97 0.2 S 15 22 8 12 1023.4 1023.5 1.4
26/01:30am 8.1 5.1 7.8 98 0.1 S 13 19 7 10 1023.5 1023.6 1.4
26/01:00am 8.1 5.1 7.7 97 0.2 S 13 22 7 12 1023.6 1023.7 1.4
26/12:30am 8.2 4.8 7.6 96 0.3 SSE 15 22 8 12 1023.8 1023.8 1.4
26/12:00am 8.3 4.5 7.4 94 0.4 S 17 22 9 12 1023.6 1023.7 1.2
 
Date/Time
EST
Temp
°C
App
Temp
°C
Dew
Point
°C
Rel
Hum
%
Delta-T
°C
Wind Press
QNH
hPa
Press
MSL
hPa
Rain since
9am
mm
Dir  Spd
km/h
Gust
km/h
Spd
kts
Gust
kts
25/11:30pm 8.6 4.8 7.4 92 0.6 S 17 26 9 14 1023.4 1023.5 1.2
25/11:00pm 8.3 4.5 7.5 95 0.4 S 17 28 9 15 1023.3 1023.4 1.2
25/10:30pm 8.4 5.5 8.3 99 0.0 S 13 20 7 11 1023.6 1023.7 1.2
25/10:00pm 8.3 4.7 8.3 100 0.0 S 17 30 9 16 1023.5 1023.6 1.2
25/09:30pm 8.3 4.7 8.3 100 0.0 S 17 26 9 14 1023.4 1023.5 1.2
25/09:00pm 8.3 5.1 8.3 100 0.0 S 15 24 8 13 1023.3 1023.4 1.2
25/08:30pm 8.3 4.7 8.3 100 0.0 S 17 26 9 14 1023.2 1023.3 1.0
25/08:00pm 8.5 4.5 8.4 99 0.0 S 19 32 10 17 1022.8 1022.8 0.8
25/07:30pm 8.5 5.7 8.4 99 0.0 S 13 20 7 11 1022.3 1022.3 0.8
25/07:00pm 8.6 5.0 8.5 99 0.0 S 17 24 9 13 1022.1 1022.1 0.8
25/06:30pm 8.7 5.1 8.4 98 0.2 S 17 26 9 14 1021.8 1021.9 0.8
25/06:00pm 8.7 6.3 8.6 99 0.1 S 11 17 6 9 1021.7 1021.8 0.8
25/05:30pm 8.8 5.7 8.7 99 0.1 S 15 24 8 13 1021.4 1021.4 0.6
25/05:00pm 8.9 6.5 8.8 99 0.1 S 11 22 6 12 1021.2 1021.2 0.4
25/04:30pm 9.0 5.9 8.7 98 0.2 S 15 24 8 13 1021.0 1021.0 0.4
25/04:00pm 9.2 6.1 8.9 98 0.2 S 15 28 8 15 1020.7 1020.7 0.2
25/03:30pm 9.4 5.5 8.8 96 0.3 S 19 28 10 15 1020.8 1020.8 0.0
25/03:00pm 9.6 6.2 9.0 96 0.3 S 17 26 9 14 1020.7 1020.7 0.0
25/02:30pm 9.8 6.3 8.9 94 0.5 S 17 28 9 15 1020.1 1020.1 0.0
25/02:00pm 9.9 6.1 9.0 94 0.5 S 19 32 10 17 1020.0 1020.0 0.0
25/01:30pm 9.6 5.6 8.4 92 0.6 S 19 30 10 16 1020.1 1020.1 0.0
25/01:00pm 10.1 5.2 8.5 90 0.8 S 24 32 13 17 1019.9 1019.9 0.0
25/12:30pm 10.3 7.2 8.7 90 0.8 S 15 30 8 16 1019.9 1019.9 0.0
25/12:00pm 10.0 6.3 7.9 87 1.0 S 17 28 9 15 1020.2 1020.3 0.0
25/11:30am 10.1 4.1 7.0 81 1.5 S 28 39 15 21 1020.2 1020.3 0.0
25/11:00am 9.6 5.5 7.9 89 0.8 S 19 28 10 15 1020.6 1020.6 0.0
25/10:30am 9.8 4.3 7.7 87 1.0 S 26 41 14 22 1020.6 1020.6 0.0
25/10:12am 10.2 4.1 6.5 78 1.8 S 28 48 15 26 1020.4 1020.4 0.0
25/10:00am 10.0 3.9 6.7 80 1.6 S 28 43 15 23 1020.2 1020.3 0.0
25/09:30am 9.4 4.8 6.3 81 1.5 S 20 30 11 16 1020.1 1020.1 0.0
25/09:00am 9.3 3.8 6.0 80 1.6 S 24 37 13 20 1020.0 1020.0 0.2
25/08:30am 9.2 4.5 5.9 80 1.6 S 20 35 11 19 1019.6 1019.6 0.2
25/08:00am 8.9 2.5 5.3 78 1.7 S 28 43 15 23 1019.5 1019.5 0.2
25/07:30am 8.3 4.1 5.8 84 1.2 S 17 30 9 16 1019.1 1019.1 0.2
25/07:00am 8.2 3.0 5.3 82 1.3 S 22 37 12 20 1018.8 1018.7 0.0
25/06:30am 8.1 3.8 5.4 83 1.3 SSE 17 28 9 15 1018.8 1018.7 0.0
25/06:00am 7.5 4.5 6.0 90 0.7 S 11 22 6 12 1018.2 1018.2 0.0
25/05:30am 7.6 3.5 6.2 91 0.7 SSW 17 28 9 15 1017.9 1017.9 0.0
25/05:00am 8.1 3.4 5.9 86 1.0 S 20 32 11 17 1017.8 1017.8 0.0
25/04:30am 8.3 3.7 5.8 84 1.2 S 19 28 10 15 1017.6 1017.6 0.0
25/04:00am 8.5 2.9 5.6 82 1.4 S 24 33 13 18 1017.2 1017.1 0.0
25/03:30am 7.9 3.1 5.7 86 1.0 S 20 35 11 19 1017.3 1017.2 0.0
25/03:00am 8.3 1.5 5.1 80 1.5 S 30 48 16 26 1017.3 1017.2 0.0
25/02:54am 8.6 2.2 5.0 78 1.7 S 28 48 15 26 1017.4 1017.3 0.0
25/02:30am 8.5 2.4 4.7 77 1.7 S 26 44 14 24 1017.3 1017.2 0.0
25/02:14am 8.3 1.8 4.5 77 1.7 S 28 48 15 26 1017.2 1017.1 0.0
25/02:00am 8.1 2.4 4.7 79 1.6 S 24 41 13 22 1017.4 1017.3 0.0
25/01:30am 8.3 2.9 4.5 77 1.7 S 22 41 12 22 1017.4 1017.3 0.0
25/01:00am 8.2 3.1 3.9 74 1.9 S 20 28 11 15 1017.4 1017.3 0.0
25/12:30am 8.1 3.9 3.8 74 1.9 S 15 28 8 15 1017.6 1017.6 0.0
25/12:00am 8.2 3.3 3.9 74 1.9 S 19 30 10 16 1017.6 1017.6 0.0
 
Date/Time
EST
Temp
°C
App
Temp
°C
Dew
Point
°C
Rel
Hum
%
Delta-T
°C
Wind Press
QNH
hPa
Press
MSL
hPa
Rain since
9am
mm
Dir  Spd
km/h
Gust
km/h
Spd
kts
Gust
kts
24/11:30pm 8.1 3.1 3.6 73 2.0 S 19 33 10 18 1017.5 1017.5 0.0
24/11:00pm 8.6 3.6 3.8 72 2.2 S 19 32 10 17 1017.6 1017.6 0.0
24/10:30pm 8.2 4.3 3.3 71 2.2 S 13 26 7 14 1017.8 1017.8 0.0
24/10:00pm 8.7 4.1 3.5 70 2.3 S 17 26 9 14 1017.6 1017.6 0.0
24/09:30pm 8.8 3.9 4.0 72 2.2 S 19 28 10 15 1017.4 1017.3 0.0
24/09:00pm 8.9 4.0 3.9 71 2.3 S 19 32 10 17 1017.4 1017.3 0.0
24/08:30pm 9.1 5.3 3.9 70 2.4 SSW 13 32 7 17 1017.2 1017.1 0.0
24/08:00pm 8.6 5.1 3.4 70 2.3 S 11 15 6 8 1017.0 1016.9 0.0
24/07:30pm 9.7 5.5 3.7 66 2.7 S 15 28 8 15 1016.7 1016.7 0.0
24/07:00pm 9.4 5.1 3.2 65 2.8 SSW 15 20 8 11 1016.4 1016.4 0.0
24/06:30pm 9.2 5.2 3.0 65 2.8 S 13 26 7 14 1016.3 1016.3 0.0
24/06:00pm 9.2 5.6 2.8 64 2.8 S 11 20 6 11 1016.1 1016.1 0.0
24/05:30pm 9.4 6.2 2.9 64 2.9 S 9 17 5 9 1015.9 1015.8 0.0
24/05:00pm 9.9 5.5 2.7 61 3.2 S 15 20 8 11 1015.8 1015.7 0.0
24/04:30pm 10.6 4.8 2.4 57 3.6 SSW 22 37 12 20 1015.3 1015.2 0.0
24/04:00pm 10.7 5.0 2.8 58 3.5 SSE 22 35 12 19 1014.9 1014.9 0.0
24/03:30pm 12.4 7.8 3.9 56 4.0 S 17 33 9 18 1014.6 1014.5 0.0
24/03:00pm 12.1 6.4 3.1 54 4.1 S 22 33 12 18 1014.3 1014.2 0.0
24/02:30pm 12.4 6.6 4.4 58 3.8 S 24 35 13 19 1014.1 1014.0 0.0
24/02:00pm 12.8 7.1 4.8 58 3.8 S 24 33 13 18 1013.9 1013.8 0.0
24/01:30pm 12.8 6.7 4.8 58 3.8 S 26 41 14 22 1013.8 1013.7 0.0
24/01:12pm 12.7 6.0 3.9 55 4.1 S 28 46 15 25 1013.8 1013.7 0.0
24/01:00pm 12.3 5.7 4.0 57 3.9 S 28 43 15 23 1013.9 1013.8 0.0
24/12:30pm 13.0 6.4 4.2 55 4.1 S 28 48 15 26 1013.9 1013.8 0.0
24/12:00pm 12.3 5.1 5.0 61 3.5 S 32 52 17 28 1014.1 1014.0 0.0
24/11:53am 12.3 5.8 4.5 59 3.7 S 28 48 15 26 1014.2 1014.1 0.0
24/11:30am 11.9 7.3 5.5 65 3.1 S 19 32 10 17 1014.4 1014.3 0.0
24/11:00am 11.9 5.5 5.1 63 3.2 S 28 41 15 22 1014.5 1014.4 0.0
24/10:30am 11.3 6.2 5.8 69 2.6 S 22 33 12 18 1014.6 1014.5 0.0
24/10:00am 11.1 6.4 6.0 71 2.5 S 20 32 11 17 1014.7 1014.7 0.0
24/09:30am 10.9 6.4 6.3 73 2.2 S 19 33 10 18 1014.7 1014.7 0.0
24/09:00am 10.4 5.9 6.0 74 2.1 S 19 30 10 16 1014.2 1014.1 3.0
24/08:30am 10.2 6.1 6.4 77 1.8 S 17 24 9 13 1013.8 1013.7 3.0
24/08:00am 9.6 5.0 6.7 82 1.4 S 20 35 11 19 1013.6 1013.5 3.0
24/07:30am 8.3 5.2 5.6 83 1.3 SSW 11 22 6 12 1013.2 1013.1 3.0
24/07:00am 7.5 4.6 4.5 81 1.4 SW 9 13 5 7 1012.8 1012.7 3.0
24/06:30am 7.3 4.4 4.4 82 1.3 SSW 9 13 5 7 1012.5 1012.4 3.0
24/06:00am 6.4 3.0 4.1 85 1.0 SSW 11 15 6 8 1012.2 1012.1 3.0
24/05:30am 6.3 2.9 3.8 84 1.1 SSW 11 17 6 9 1011.7 1011.6 3.0
24/05:00am 6.3 2.9 3.8 84 1.1 SW 11 17 6 9 1011.5 1011.4 3.0
24/04:30am 6.7 3.3 3.9 82 1.2 SW 11 17 6 9 1011.4 1011.3 3.0
24/04:00am 6.5 3.1 4.0 84 1.1 SW 11 17 6 9 1011.2 1011.1 3.0
24/03:30am 6.7 4.6 3.9 82 1.2 SW 4 6 2 3 1011.4 1011.3 3.0
24/03:00am 7.2 5.2 4.2 81 1.3 SW 4 7 2 4 1011.1 1011.0 3.0
24/02:30am 7.8 5.2 4.4 79 1.5 SW 7 11 4 6 1011.2 1011.1 3.0
24/02:00am 7.9 5.0 4.5 79 1.5 SW 9 13 5 7 1011.3 1011.2 3.0
24/01:30am 8.3 4.3 4.7 78 1.7 SW 15 22 8 12 1011.2 1011.1 3.0
24/01:00am 8.1 4.1 4.7 79 1.6 SW 15 22 8 12 1011.2 1011.1 3.0
24/12:30am 8.3 4.3 4.7 78 1.7 SW 15 22 8 12 1011.2 1011.1 3.0
24/12:00am 8.4 5.2 5.0 79 1.6 SW 11 15 6 8 1011.1 1011.0 3.0
 
Date/Time
EST
Temp
°C
App
Temp
°C
Dew
Point
°C
Rel
Hum
%
Delta-T
°C
Wind Press
QNH
hPa
Press
MSL
hPa
Rain since
9am
mm
Dir  Spd
km/h
Gust
km/h
Spd
kts
Gust
kts
23/11:30pm 8.5 4.5 5.1 79 1.6 SW 15 20 8 11 1011.0 1010.9 3.0
23/11:00pm 8.5 5.0 5.3 80 1.5 WSW 13 20 7 11 1011.0 1010.9 3.0
23/10:30pm 8.3 5.6 5.6 83 1.3 WSW 9 13 5 7 1010.9 1010.8 3.0
23/10:00pm 8.2 5.9 5.8 85 1.1 WSW 7 15 4 8 1010.9 1010.8 3.0
23/09:30pm 8.2 6.1 5.8 85 1.1 WSW 6 9 3 5 1011.0 1010.9 3.0
23/09:00pm 8.3 6.3 6.1 86 1.0 WSW 6 11 3 6 1010.8 1010.7 3.0
23/08:30pm 8.2 6.0 6.3 88 0.9 WSW 7 11 4 6 1010.7 1010.6 3.0
23/08:00pm 8.2 6.0 6.3 88 0.9 WSW 7 13 4 7 1010.5 1010.3 3.0
23/07:30pm 8.2 5.7 6.5 89 0.8 WSW 9 13 5 7 1010.2 1010.0 3.0
23/07:00pm 8.3 6.2 6.6 89 0.8 WSW 7 11 4 6 1009.9 1009.8 3.0
23/06:30pm 8.4 6.4 6.9 90 0.7 WSW 7 13 4 7 1009.8 1009.7 3.0
23/06:00pm 8.6 5.9 7.2 91 0.7 WSW 11 20 6 11 1009.7 1009.6 3.0
23/05:30pm 8.8 6.5 7.4 91 0.7 WSW 9 13 5 7 1009.4 1009.3 3.0
23/05:00pm 9.0 6.3 7.5 90 0.7 WSW 11 19 6 10 1009.2 1009.1 3.0
23/04:30pm 9.5 6.4 7.1 85 1.2 WSW 13 17 7 9 1009.2 1009.1 2.8
23/04:00pm 10.0 6.5 7.3 83 1.3 WSW 15 20 8 11 1008.9 1008.7 2.8
23/03:30pm 11.1 7.6 7.0 76 2.0 SW 15 24 8 13 1008.6 1008.4 2.6
23/03:00pm 11.6 7.7 7.1 74 2.2 W 17 22 9 12 1008.2 1008.1 2.6
23/02:30pm 12.1 8.3 7.4 73 2.4 WSW 17 28 9 15 1008.3 1008.2 2.6
23/02:00pm 11.2 7.9 8.2 82 1.5 WSW 15 24 8 13 1008.3 1008.2 2.6
23/01:30pm 11.3 7.2 8.0 80 1.7 WSW 19 32 10 17 1008.5 1008.3 2.6
23/01:00pm 9.8 6.3 7.4 85 1.2 WSW 15 24 8 13 1008.6 1008.4 2.6
23/12:30pm 9.7 6.4 8.0 89 0.8 WSW 15 22 8 12 1008.9 1008.7 2.6
23/12:00pm 9.2 5.8 7.8 91 0.7 SW 15 24 8 13 1009.1 1008.9 2.4
23/11:30am 8.7 4.5 7.5 92 0.6 WSW 19 28 10 15 1009.4 1009.3 2.4
23/11:00am 8.5 5.0 7.4 93 0.5 WSW 15 24 8 13 1009.6 1009.5 2.0
23/10:30am 8.5 4.6 7.3 92 0.6 SW 17 24 9 13 1009.7 1009.6 1.6

Other formats

Comma delimited format used in spreadsheet applications
http://www.bom.gov.au/fwo/IDN60801/IDN60801.94943.axf

JavaScript Object Notation format (JSON) in row-major order
http://www.bom.gov.au/fwo/IDN60801/IDN60801.94943.json

Data quality

Most of these data are generated automatically and are frequently updated. Quality checks on data are not normally performed. It is possible for incorrect values to appear. Refer to information at About Latest Weather Observations and please check the disclaimer before using these data.